Time;durP1;ratioP1;P1;durP2;ratioP2;P2;SDS_P1;SDS_P2;PMS_P1;PMS_P2;Temp;Humidity;BMP_temperature;BMP_pressure;BME280_temperature;BME280_humidity;BME280_pressure;Samples;Min_cycle;Max_cycle;Signal;HPM_P1;HPM_P2
2023/09/07 00:00:35;;;;;;;4.47;4.07;;;18.90;99.90;;;;;;4992336;28;20113;-47
2023/09/07 00:03:01;;;;;;;5.10;4.00;;;18.90;99.90;;;;;;4992196;28;20027;-46
2023/09/07 00:05:27;;;;;;;4.85;4.18;;;18.80;99.90;;;;;;4993076;28;20026;-49
2023/09/07 00:07:52;;;;;;;5.53;3.80;;;18.70;99.90;;;;;;4992595;28;20037;-47
2023/09/07 00:10:18;;;;;;;9.25;4.55;;;18.60;99.90;;;;;;4992337;28;20549;-48
2023/09/07 00:12:44;;;;;;;5.47;4.10;;;18.60;99.90;;;;;;4992211;28;20026;-46
2023/09/07 00:15:10;;;;;;;11.02;4.40;;;18.60;99.90;;;;;;4993655;28;20026;-46
2023/09/07 00:17:36;;;;;;;5.30;3.85;;;18.60;99.90;;;;;;4992462;28;20030;-46
2023/09/07 00:20:10;;;;;;;7.05;4.72;;;18.60;99.90;;;;;;4993364;28;20291;-47
2023/09/07 00:22:35;;;;;;;5.13;4.30;;;18.50;99.90;;;;;;4992226;28;20172;-47
2023/09/07 00:25:01;;;;;;;5.72;4.00;;;18.50;99.90;;;;;;4992189;28;20026;-48
2023/09/07 00:27:27;;;;;;;6.10;4.30;;;18.40;99.90;;;;;;4993559;28;20073;-46
2023/09/07 00:29:52;;;;;;;4.95;4.00;;;18.50;99.90;;;;;;4991784;28;20116;-49
2023/09/07 00:32:18;;;;;;;6.85;3.92;;;18.40;99.90;;;;;;4991573;28;20444;-47
2023/09/07 00:34:44;;;;;;;6.57;4.85;;;18.30;99.90;;;;;;4992276;28;20066;-50
2023/09/07 00:37:10;;;;;;;4.70;4.28;;;18.30;99.90;;;;;;4991835;28;20056;-46
2023/09/07 00:39:35;;;;;;;7.43;4.32;;;18.30;99.90;;;;;;4990893;28;20460;-46
2023/09/07 00:42:01;;;;;;;5.55;4.60;;;18.30;99.90;;;;;;4991738;28;20110;-48
2023/09/07 00:44:27;;;;;;;8.20;5.25;;;18.30;99.90;;;;;;4991637;28;20441;-49
2023/09/07 00:46:52;;;;;;;6.35;4.82;;;18.30;99.90;;;;;;4991752;28;20030;-49
2023/09/07 00:49:18;;;;;;;5.32;4.45;;;18.30;99.90;;;;;;4991494;28;20030;-48
2023/09/07 00:51:45;;;;;;;7.65;5.00;;;18.30;99.90;;;;;;4991290;28;20070;-52
2023/09/07 00:54:10;;;;;;;7.57;4.40;;;18.20;99.90;;;;;;4991463;28;20474;-46
2023/09/07 00:56:36;;;;;;;12.45;4.63;;;18.20;99.90;;;;;;4991319;28;20034;-47
2023/09/07 00:59:02;;;;;;;8.27;4.65;;;18.20;99.90;;;;;;4991147;28;20489;-47
2023/09/07 01:01:30;;;;;;;4.47;4.00;;;18.10;99.90;;;;;;4991297;28;20066;-47
2023/09/07 01:03:57;;;;;;;7.28;4.10;;;18.00;99.90;;;;;;4991359;28;20413;-47
2023/09/07 01:06:26;;;;;;;9.85;4.82;;;18.00;99.90;;;;;;4991542;28;20030;-47
2023/09/07 01:08:56;;;;;;;4.60;4.20;;;18.00;99.90;;;;;;4991324;28;20033;-48
2023/09/07 01:11:22;;;;;;;5.68;4.50;;;17.90;99.90;;;;;;4991405;28;20038;-49
2023/09/07 01:13:48;;;;;;;4.97;4.13;;;17.90;99.90;;;;;;4992229;28;20058;-47
2023/09/07 01:16:14;;;;;;;5.63;4.60;;;17.80;99.90;;;;;;4974959;28;20023;-50
2023/09/07 01:18:41;;;;;;;9.10;4.38;;;17.80;99.90;;;;;;4991069;28;20497;-46
2023/09/07 01:21:08;;;;;;;8.05;4.53;;;17.80;99.90;;;;;;4992254;28;20109;-51
2023/09/07 01:23:36;;;;;;;9.63;4.60;;;17.80;99.90;;;;;;4990967;28;20022;-49
2023/09/07 01:26:02;;;;;;;6.75;4.22;;;17.80;99.90;;;;;;4991123;28;20022;-48
2023/09/07 01:28:28;;;;;;;4.88;4.32;;;17.70;99.90;;;;;;4990855;28;20114;-51
2023/09/07 01:30:54;;;;;;;5.07;4.15;;;17.70;99.90;;;;;;4990839;28;20117;-48
2023/09/07 01:35:53;;;;;;;7.30;3.95;;;17.60;99.90;;;;;;4936558;29;20083;-48
2023/09/07 01:38:19;;;;;;;5.25;4.75;;;17.70;99.90;;;;;;4937565;29;20110;-50
2023/09/07 01:40:44;;;;;;;7.65;4.60;;;17.70;99.90;;;;;;4934621;29;20023;-48
2023/09/07 01:43:10;;;;;;;6.95;4.65;;;17.60;99.90;;;;;;4934278;29;20497;-46
2023/09/07 01:45:35;;;;;;;6.45;4.40;;;17.60;99.90;;;;;;4951121;29;20458;-49
2023/09/07 01:48:01;;;;;;;4.50;4.15;;;17.60;99.90;;;;;;4990613;23;20073;-46
2023/09/07 01:50:27;;;;;;;6.38;4.55;;;17.60;99.90;;;;;;4974564;28;20462;-44
2023/09/07 01:52:52;;;;;;;5.63;4.95;;;17.50;99.90;;;;;;4976694;28;20030;-46
2023/09/07 01:55:18;;;;;;;11.65;4.47;;;17.50;99.90;;;;;;4975163;28;20019;-44
2023/09/07 01:57:44;;;;;;;6.07;3.95;;;17.40;99.90;;;;;;4975316;28;20023;-45
2023/09/07 02:00:10;;;;;;;5.75;5.18;;;17.40;99.90;;;;;;4976542;28;20098;-45
2023/09/07 02:02:36;;;;;;;8.60;4.35;;;17.30;99.90;;;;;;4976439;28;20034;-46
2023/09/07 02:05:02;;;;;;;4.97;4.45;;;17.30;99.90;;;;;;4975971;28;20402;-44
2023/09/07 02:07:27;;;;;;;7.05;4.30;;;17.20;99.90;;;;;;4976424;28;20394;-45
2023/09/07 02:09:53;;;;;;;8.98;4.45;;;17.30;99.90;;;;;;4976391;28;20070;-44
2023/09/07 02:12:18;;;;;;;7.53;4.25;;;17.30;99.90;;;;;;4974911;28;20498;-43
2023/09/07 02:14:44;;;;;;;13.60;4.70;;;17.20;99.90;;;;;;4976426;28;20019;-46
2023/09/07 02:17:09;;;;;;;6.03;4.15;;;17.20;99.90;;;;;;4974498;28;20477;-45
2023/09/07 02:19:35;;;;;;;6.10;4.28;;;17.20;99.90;;;;;;4976103;28;20031;-46
2023/09/07 02:22:01;;;;;;;6.07;4.10;;;17.20;99.90;;;;;;4976119;28;20059;-44
2023/09/07 02:24:26;;;;;;;9.13;4.65;;;17.20;99.90;;;;;;4975735;28;20026;-46
2023/09/07 02:26:52;;;;;;;6.80;4.07;;;17.20;99.90;;;;;;4976040;28;20042;-44
2023/09/07 02:29:17;;;;;;;4.47;4.07;;;17.20;99.90;;;;;;4974969;28;20049;-45
2023/09/07 02:31:43;;;;;;;5.55;4.30;;;17.20;99.90;;;;;;4975863;28;20027;-44
2023/09/07 02:34:08;;;;;;;20.38;4.97;;;17.20;99.90;;;;;;4975248;28;20813;-44
2023/09/07 02:36:35;;;;;;;5.35;4.70;;;17.30;99.90;;;;;;4974549;28;20023;-46
2023/09/07 02:39:01;;;;;;;4.18;3.88;;;17.30;99.90;;;;;;4975871;28;20019;-44
2023/09/07 02:41:27;;;;;;;7.60;4.13;;;17.40;99.90;;;;;;4975743;28;20023;-45
2023/09/07 02:43:52;;;;;;;14.48;4.82;;;17.40;99.90;;;;;;4975407;28;20037;-47
2023/09/07 02:46:39;;;;;;;8.02;4.40;;;17.30;99.90;;;;;;4975832;28;20438;-47
2023/09/07 02:49:05;;;;;;;6.90;4.75;;;17.40;99.90;;;;;;4973286;28;20402;-47
2023/09/07 02:51:31;;;;;;;6.50;4.13;;;17.40;99.90;;;;;;4975289;28;20030;-46
2023/09/07 02:53:57;;;;;;;6.13;4.40;;;17.40;99.90;;;;;;4975324;28;20027;-44
2023/09/07 02:56:22;;;;;;;6.30;5.13;;;17.30;99.90;;;;;;4975331;28;20077;-47
2023/09/07 02:58:48;;;;;;;7.20;4.22;;;17.30;99.90;;;;;;4975525;28;20034;-45
2023/09/07 03:01:13;;;;;;;5.22;4.63;;;17.30;99.90;;;;;;4974500;28;20030;-44
2023/09/07 03:03:41;;;;;;;7.78;4.75;;;17.30;99.90;;;;;;4975003;28;20114;-47
2023/09/07 03:06:14;;;;;;;5.38;4.57;;;17.30;99.90;;;;;;4975350;28;20445;-47
2023/09/07 03:08:40;;;;;;;6.15;4.50;;;17.20;99.90;;;;;;4975358;28;20027;-47
2023/09/07 03:11:07;;;;;;;8.68;4.60;;;17.20;99.90;;;;;;4975591;28;20019;-46
2023/09/07 03:13:32;;;;;;;5.30;4.68;;;17.20;99.90;;;;;;4974995;28;20019;-43
2023/09/07 03:15:59;;;;;;;9.02;4.63;;;17.20;99.90;;;;;;4975224;28;20122;-42
2023/09/07 03:18:24;;;;;;;8.38;5.03;;;17.20;99.90;;;;;;4975062;28;20031;-44
2023/09/07 03:20:52;;;;;;;6.20;4.57;;;17.20;99.90;;;;;;4975140;28;20026;-44
2023/09/07 03:23:18;;;;;;;5.88;4.55;;;17.20;99.90;;;;;;4974597;28;20478;-43
2023/09/07 03:25:43;;;;;;;6.60;4.68;;;17.10;99.90;;;;;;4974679;28;20030;-44
2023/09/07 03:28:09;;;;;;;10.88;4.68;;;17.10;99.90;;;;;;4974915;28;20027;-43
2023/09/07 03:30:34;;;;;;;8.13;4.82;;;17.10;99.90;;;;;;4974877;28;20094;-42
2023/09/07 03:33:00;;;;;;;5.88;4.03;;;17.10;99.90;;;;;;4974710;28;20038;-46
2023/09/07 03:35:26;;;;;;;5.50;4.80;;;17.10;99.90;;;;;;4974495;28;20027;-40
2023/09/07 03:37:51;;;;;;;5.53;4.53;;;17.10;99.90;;;;;;4974936;28;20077;-43
2023/09/07 03:40:17;;;;;;;11.32;4.65;;;17.10;99.90;;;;;;4973462;28;20561;-43
2023/09/07 03:42:43;;;;;;;6.20;5.03;;;17.10;99.90;;;;;;4974758;28;20062;-43
2023/09/07 03:45:09;;;;;;;6.95;4.70;;;17.10;99.90;;;;;;4974314;28;20027;-46
2023/09/07 03:47:34;;;;;;;7.15;4.55;;;17.10;99.90;;;;;;4974410;28;20037;-47
2023/09/07 03:50:00;;;;;;;7.28;4.50;;;17.10;99.90;;;;;;4973311;28;20027;-47
2023/09/07 03:52:27;;;;;;;8.00;4.53;;;17.10;99.90;;;;;;4974548;28;20034;-42
2023/09/07 03:54:55;;;;;;;5.05;4.55;;;17.10;99.90;;;;;;4974119;28;20429;-45
2023/09/07 03:57:21;;;;;;;4.95;4.53;;;17.10;99.90;;;;;;4974317;28;20537;-44
2023/09/07 03:59:48;;;;;;;6.80;4.82;;;17.10;99.90;;;;;;4974137;28;20030;-45
2023/09/07 04:02:13;;;;;;;5.80;4.78;;;17.10;99.90;;;;;;4974182;28;20517;-46
2023/09/07 04:04:40;;;;;;;16.13;4.80;;;17.10;99.90;;;;;;4974176;28;20119;-43
2023/09/07 04:07:05;;;;;;;4.60;4.18;;;17.10;99.90;;;;;;4974158;28;20038;-47
2023/09/07 04:09:31;;;;;;;9.00;5.20;;;17.10;99.90;;;;;;4974087;28;20027;-42
2023/09/07 04:11:57;;;;;;;7.28;4.78;;;17.10;99.90;;;;;;4974073;28;20023;-41
2023/09/07 04:14:22;;;;;;;5.45;4.65;;;17.10;99.90;;;;;;4973793;28;20022;-43
2023/09/07 04:16:47;;;;;;;5.25;4.80;;;17.00;99.90;;;;;;4973884;28;20019;-43
2023/09/07 04:19:13;;;;;;;8.70;4.80;;;17.10;99.90;;;;;;4974030;28;20474;-42
2023/09/07 04:21:38;;;;;;;8.90;4.40;;;17.00;99.90;;;;;;4974200;28;20069;-42
2023/09/07 04:24:04;;;;;;;11.10;4.40;;;17.00;99.90;;;;;;4972389;28;20026;-43
2023/09/07 04:26:30;;;;;;;8.07;4.60;;;17.00;99.90;;;;;;4973761;28;20035;-44
2023/09/07 04:28:56;;;;;;;11.00;4.75;;;17.00;99.90;;;;;;4973730;28;20030;-43
2023/09/07 04:31:21;;;;;;;5.45;4.43;;;16.90;99.90;;;;;;4973758;28;20035;-43
2023/09/07 04:33:47;;;;;;;5.47;4.60;;;16.90;99.90;;;;;;4973471;28;20019;-45
2023/09/07 04:36:14;;;;;;;5.45;4.40;;;16.80;99.90;;;;;;4973332;28;20036;-43
2023/09/07 04:38:40;;;;;;;7.35;5.00;;;16.90;99.90;;;;;;4973634;28;20029;-43
2023/09/07 04:41:06;;;;;;;9.13;5.13;;;16.90;99.90;;;;;;4973580;28;20516;-44
2023/09/07 04:43:32;;;;;;;6.30;5.10;;;16.90;99.90;;;;;;4973162;28;20486;-44
2023/09/07 04:45:57;;;;;;;7.35;5.25;;;16.90;99.90;;;;;;4973337;28;20034;-46
2023/09/07 04:48:23;;;;;;;5.97;4.53;;;16.90;99.90;;;;;;4973322;28;20034;-44
2023/09/07 04:50:48;;;;;;;11.70;4.22;;;16.90;99.90;;;;;;4973664;28;20490;-43
2023/09/07 04:53:14;;;;;;;7.97;4.78;;;16.90;99.90;;;;;;4973154;28;20031;-40
2023/09/07 04:55:39;;;;;;;7.18;4.60;;;17.00;99.90;;;;;;4972057;28;20023;-45
2023/09/07 04:58:05;;;;;;;4.55;4.15;;;17.00;99.90;;;;;;4973258;28;20482;-45
2023/09/07 05:00:31;;;;;;;6.43;5.10;;;17.00;99.90;;;;;;4973165;28;20030;-44
2023/09/07 05:02:56;;;;;;;5.40;4.68;;;17.00;99.90;;;;;;4973700;28;20438;-42
2023/09/07 05:05:22;;;;;;;6.78;4.90;;;17.10;99.90;;;;;;4971780;28;20078;-43
2023/09/07 05:07:47;;;;;;;9.73;4.55;;;17.10;99.90;;;;;;4973225;28;20065;-46
2023/09/07 05:10:13;;;;;;;11.90;4.43;;;17.20;99.90;;;;;;4972826;28;20031;-44
2023/09/07 05:12:38;;;;;;;6.90;4.53;;;17.20;99.90;;;;;;4973037;28;20030;-43
2023/09/07 05:15:06;;;;;;;7.90;4.38;;;17.30;99.90;;;;;;4972935;28;20442;-43
2023/09/07 05:17:32;;;;;;;7.35;4.90;;;17.30;99.90;;;;;;4972692;28;20023;-42
2023/09/07 05:19:57;;;;;;;5.35;4.85;;;17.30;99.90;;;;;;4971653;28;20093;-44
2023/09/07 05:22:23;;;;;;;8.63;4.55;;;17.40;99.90;;;;;;4973208;28;20046;-46
2023/09/07 05:24:48;;;;;;;9.68;4.50;;;17.40;99.90;;;;;;4972160;28;20133;-44
2023/09/07 05:27:14;;;;;;;7.88;4.75;;;17.50;99.90;;;;;;4972827;28;20033;-42
2023/09/07 05:29:39;;;;;;;8.82;5.15;;;17.50;99.90;;;;;;4972761;28;20023;-45
2023/09/07 05:32:06;;;;;;;6.65;4.68;;;17.60;99.90;;;;;;4972787;28;20027;-44
2023/09/07 05:34:31;;;;;;;6.50;4.72;;;17.60;99.90;;;;;;4972075;28;20034;-43
2023/09/07 05:36:57;;;;;;;5.80;4.70;;;17.70;99.90;;;;;;4972977;28;20027;-43
2023/09/07 05:39:22;;;;;;;5.88;4.75;;;17.70;99.90;;;;;;4972303;28;20110;-45
2023/09/07 05:41:49;;;;;;;7.38;4.05;;;17.90;99.90;;;;;;4972679;28;20394;-43
2023/09/07 05:44:15;;;;;;;5.13;4.30;;;17.90;99.90;;;;;;4972132;28;20023;-49
2023/09/07 05:46:40;;;;;;;7.80;4.88;;;18.00;99.90;;;;;;4971030;28;20133;-46
2023/09/07 05:49:06;;;;;;;6.97;4.75;;;18.10;99.90;;;;;;4972883;28;20486;-45
2023/09/07 05:51:32;;;;;;;8.10;4.65;;;18.00;99.90;;;;;;4972465;28;20026;-44
2023/09/07 05:53:58;;;;;;;5.88;4.35;;;18.00;99.90;;;;;;4972372;28;20585;-45
2023/09/07 05:56:23;;;;;;;4.85;4.13;;;18.00;99.90;;;;;;4973318;28;20023;-45
2023/09/07 05:58:49;;;;;;;7.80;4.50;;;18.10;99.90;;;;;;4972438;28;20398;-47
2023/09/07 06:01:14;;;;;;;7.47;5.47;;;18.20;99.90;;;;;;4972526;28;20027;-43
2023/09/07 06:03:41;;;;;;;6.55;4.53;;;18.20;99.90;;;;;;4972091;28;20067;-47
2023/09/07 06:06:06;;;;;;;8.88;4.30;;;18.20;99.90;;;;;;4972443;28;20027;-44
2023/09/07 06:08:32;;;;;;;8.73;4.80;;;18.20;99.90;;;;;;4972380;28;20023;-43
2023/09/07 06:10:57;;;;;;;8.10;4.47;;;18.30;99.90;;;;;;4972355;28;20034;-49
2023/09/07 06:13:23;;;;;;;10.40;4.82;;;18.30;99.90;;;;;;4971894;28;20426;-38
2023/09/07 06:15:48;;;;;;;7.93;4.68;;;18.40;99.90;;;;;;4970715;28;20023;-45
2023/09/07 06:18:14;;;;;;;6.97;4.25;;;18.40;99.90;;;;;;4972361;28;20409;-43
2023/09/07 06:20:39;;;;;;;9.15;4.68;;;18.40;99.90;;;;;;4972350;28;20031;-43
2023/09/07 06:23:05;;;;;;;6.13;4.78;;;18.50;99.90;;;;;;4972334;28;20031;-44
2023/09/07 06:25:30;;;;;;;4.80;4.40;;;18.50;99.90;;;;;;4970897;28;20041;-48
2023/09/07 06:27:56;;;;;;;7.35;5.53;;;18.60;99.90;;;;;;4972255;28;20027;-44
2023/09/07 06:30:22;;;;;;;6.65;3.97;;;18.70;99.90;;;;;;4972455;28;20038;-41
2023/09/07 06:32:48;;;;;;;5.45;4.63;;;18.80;99.90;;;;;;4972415;28;20517;-43
2023/09/07 06:35:14;;;;;;;10.82;4.47;;;18.90;99.90;;;;;;4971581;28;20039;-44
2023/09/07 06:37:42;;;;;;;7.88;4.50;;;19.00;99.90;;;;;;4974097;28;20525;-42
2023/09/07 06:40:09;;;;;;;7.32;4.18;;;19.10;99.90;;;;;;4976004;28;20401;-43
2023/09/07 06:42:34;;;;;;;5.93;4.38;;;19.30;99.90;;;;;;4975674;28;20027;-43
2023/09/07 06:45:00;;;;;;;9.50;4.10;;;19.40;99.90;;;;;;4975497;28;20109;-44
2023/09/07 06:47:25;;;;;;;10.55;4.60;;;19.60;99.90;;;;;;4974162;28;20097;-43
2023/09/07 06:49:51;;;;;;;9.40;4.60;;;19.90;99.90;;;;;;4975712;28;20031;-42
2023/09/07 06:52:16;;;;;;;15.85;4.68;;;20.30;99.90;;;;;;4975441;28;20605;-43
2023/09/07 06:54:42;;;;;;;5.88;4.13;;;20.60;99.90;;;;;;4975493;28;20054;-44
2023/09/07 06:57:08;;;;;;;4.63;4.20;;;20.90;99.90;;;;;;4975626;28;20015;-47
2023/09/07 06:59:34;;;;;;;5.60;3.75;;;21.50;99.90;;;;;;4975506;28;20023;-43
2023/09/07 07:02:00;;;;;;;8.25;4.45;;;22.20;99.90;;;;;;4975467;28;20027;-46
2023/09/07 07:04:26;;;;;;;6.10;4.53;;;22.80;99.90;;;;;;4975068;28;20026;-44
2023/09/07 07:06:51;;;;;;;4.95;4.10;;;23.30;99.90;;;;;;4971324;28;20139;-48
2023/09/07 07:09:17;;;;;;;9.40;3.63;;;23.90;99.90;;;;;;4967729;28;20548;-45
2023/09/07 07:11:43;;;;;;;6.20;3.90;;;24.60;99.90;;;;;;4974837;28;20058;-49
2023/09/07 07:14:09;;;;;;;6.15;3.67;;;25.40;99.90;;;;;;4955518;28;20024;-47
2023/09/07 07:16:34;;;;;;;4.85;3.40;;;25.70;99.90;;;;;;4955724;29;20039;-46
2023/09/07 07:19:00;;;;;;;4.70;3.78;;;26.20;99.90;;;;;;4954760;28;20035;-46
2023/09/07 07:21:25;;;;;;;5.03;4.00;;;26.10;99.90;;;;;;4969862;28;20031;-45
2023/09/07 07:23:51;;;;;;;4.57;3.83;;;26.00;99.90;;;;;;4974615;28;20110;-46
2023/09/07 07:26:17;;;;;;;7.55;3.22;;;26.00;99.90;;;;;;4974522;28;20031;-44
2023/09/07 07:28:42;;;;;;;6.88;3.72;;;25.90;99.90;;;;;;4974930;28;20045;-47
2023/09/07 07:31:09;;;;;;;6.53;3.47;;;26.10;99.90;;;;;;4974565;28;20498;-45
2023/09/07 07:33:35;;;;;;;6.45;3.60;;;26.60;99.10;;;;;;4966083;28;20023;-54
2023/09/07 07:36:01;;;;;;;4.55;3.38;;;26.70;98.50;;;;;;4955420;28;20039;-44
2023/09/07 07:38:26;;;;;;;4.80;3.33;;;26.60;98.80;;;;;;4955773;28;20382;-46
2023/09/07 07:40:53;;;;;;;5.28;4.05;;;26.20;99.10;;;;;;4955569;28;20050;-46
2023/09/07 07:43:18;;;;;;;3.55;3.25;;;25.70;99.40;;;;;;4955537;28;20023;-46
2023/09/07 07:45:44;;;;;;;7.60;3.50;;;25.60;99.80;;;;;;4955268;29;20033;-46
2023/09/07 07:48:09;;;;;;;6.88;3.25;;;26.40;99.10;;;;;;4988998;23;20121;-49
2023/09/07 07:50:41;;;;;;;3.65;3.28;;;25.80;99.10;;;;;;4974469;28;20041;-46
2023/09/07 07:53:07;;;;;;;4.15;3.75;;;26.10;98.70;;;;;;4974307;28;20121;-51
2023/09/07 07:55:40;;;;;;;5.03;3.47;;;26.40;98.80;;;;;;4974018;28;20027;-50
2023/09/07 07:58:09;;;;;;;7.35;3.92;;;26.20;99.00;;;;;;4988637;28;20556;-52
2023/09/07 08:00:36;;;;;;;3.72;3.33;;;26.20;98.90;;;;;;4993567;28;20033;-49
2023/09/07 08:03:03;;;;;;;5.30;3.20;;;26.00;99.20;;;;;;4992507;28;20027;-47
2023/09/07 08:05:29;;;;;;;6.10;3.70;;;26.00;98.80;;;;;;4993320;28;20026;-48
2023/09/07 08:07:56;;;;;;;5.55;3.50;;;25.80;98.90;;;;;;4992449;28;20035;-48
2023/09/07 08:10:21;;;;;;;3.92;3.55;;;26.00;99.00;;;;;;4993670;28;20105;-48
2023/09/07 08:12:47;;;;;;;4.97;3.40;;;26.50;98.60;;;;;;4993199;28;20108;-51
2023/09/07 08:15:12;;;;;;;5.10;3.35;;;26.50;98.00;;;;;;4993239;28;20053;-52
2023/09/07 08:17:38;;;;;;;5.25;3.42;;;26.40;97.90;;;;;;4993382;28;20516;-49
2023/09/07 08:20:03;;;;;;;3.88;3.50;;;26.30;98.30;;;;;;4992029;28;20454;-49
2023/09/07 08:22:29;;;;;;;4.15;3.72;;;26.00;98.80;;;;;;4993339;28;20030;-50
2023/09/07 08:24:55;;;;;;;6.05;3.08;;;25.90;98.90;;;;;;4993054;28;20490;-56
2023/09/07 08:27:21;;;;;;;8.48;3.90;;;25.90;99.50;;;;;;4993130;28;20026;-49
2023/09/07 08:29:51;;;;;;;5.30;3.50;;;26.10;99.00;;;;;;4993273;28;20031;-48
2023/09/07 08:32:17;;;;;;;10.50;3.65;;;26.70;98.30;;;;;;4989415;28;20048;-48
2023/09/07 08:34:43;;;;;;;6.90;3.78;;;26.30;99.00;;;;;;4981592;28;20464;-49
2023/09/07 08:37:08;;;;;;;4.55;3.25;;;27.20;97.60;;;;;;4989605;28;20027;-49
2023/09/07 08:39:34;;;;;;;9.55;3.67;;;26.40;98.20;;;;;;4993587;28;20022;-47
2023/09/07 08:42:00;;;;;;;6.13;3.35;;;26.40;98.40;;;;;;4993896;28;20382;-49
2023/09/07 08:44:27;;;;;;;5.57;3.70;;;27.20;97.20;;;;;;4992264;28;20474;-48
2023/09/07 08:46:52;;;;;;;3.70;3.20;;;27.00;97.20;;;;;;4987881;28;20062;-47
2023/09/07 08:49:19;;;;;;;6.43;2.90;;;27.50;96.90;;;;;;4993272;28;20026;-48
2023/09/07 08:51:45;;;;;;;8.23;3.50;;;26.80;97.70;;;;;;4987367;28;20035;-47
2023/09/07 08:54:12;;;;;;;3.40;3.17;;;27.60;97.40;;;;;;4978664;28;20049;-47
2023/09/07 08:56:37;;;;;;;6.22;3.15;;;27.60;96.60;;;;;;4992283;28;20289;-48
2023/09/07 08:59:04;;;;;;;4.03;3.15;;;27.90;95.90;;;;;;4992298;28;20449;-48
2023/09/07 09:01:31;;;;;;;4.13;3.08;;;28.00;95.90;;;;;;4992817;28;20026;-50
2023/09/07 09:03:57;;;;;;;6.63;3.22;;;28.00;96.30;;;;;;4992178;28;20026;-50
2023/09/07 09:06:23;;;;;;;3.58;3.03;;;28.10;95.40;;;;;;4991295;28;20509;-49
2023/09/07 09:08:53;;;;;;;4.60;3.10;;;28.30;95.70;;;;;;4992587;28;20057;-49
2023/09/07 09:11:20;;;;;;;4.88;3.58;;;28.20;95.40;;;;;;4992592;28;20483;-52
2023/09/07 09:13:47;;;;;;;6.05;3.30;;;28.00;95.80;;;;;;4992156;28;20494;-48
2023/09/07 09:16:13;;;;;;;3.85;3.45;;;28.20;95.60;;;;;;4990867;28;20493;-48
2023/09/07 09:18:49;;;;;;;4.05;3.58;;;28.00;95.40;;;;;;4991911;28;20106;-53
2023/09/07 09:21:16;;;;;;;4.07;3.40;;;27.30;96.30;;;;;;4992697;28;20086;-51
2023/09/07 09:23:41;;;;;;;4.20;3.35;;;27.10;96.40;;;;;;4991468;28;20053;-49
2023/09/07 09:26:07;;;;;;;4.90;3.67;;;26.40;97.10;;;;;;4992287;28;20065;-51
2023/09/07 09:28:33;;;;;;;7.90;3.20;;;26.40;98.10;;;;;;4991851;28;20061;-49
2023/09/07 09:31:00;;;;;;;4.88;3.25;;;26.50;97.00;;;;;;4991935;28;20030;-49
2023/09/07 09:33:27;;;;;;;7.35;3.13;;;26.20;97.90;;;;;;4991684;28;20029;-51
2023/09/07 09:35:54;;;;;;;8.80;3.70;;;26.00;97.70;;;;;;4991832;28;20165;-53
2023/09/07 09:38:19;;;;;;;6.30;3.70;;;25.90;97.90;;;;;;4991735;28;20429;-52
2023/09/07 09:40:45;;;;;;;3.90;3.50;;;25.80;98.40;;;;;;4990354;28;20023;-46
2023/09/07 09:43:12;;;;;;;3.33;3.03;;;25.50;98.30;;;;;;4971410;28;20119;-50
2023/09/07 09:45:37;;;;;;;8.98;5.40;;;25.60;98.60;;;;;;4986457;28;20113;-51
2023/09/07 09:48:05;;;;;;;44.58;27.80;;;25.80;98.70;;;;;;4991283;28;20460;-49
2023/09/07 09:50:34;;;;;;;11.48;4.15;;;26.00;98.50;;;;;;4992057;28;20029;-49
2023/09/07 09:53:01;;;;;;;4.05;3.65;;;26.10;98.30;;;;;;4991526;28;20056;-49
2023/09/07 09:55:28;;;;;;;4.15;3.40;;;26.40;97.60;;;;;;4990829;28;20457;-47
2023/09/07 09:57:57;;;;;;;5.18;3.78;;;26.50;97.50;;;;;;4989082;28;20126;-49
2023/09/07 10:00:26;;;;;;;3.78;3.38;;;26.60;97.20;;;;;;4988320;28;20437;-51
2023/09/07 10:03:00;;;;;;;3.78;3.47;;;26.50;97.60;;;;;;4989347;28;20022;-48
2023/09/07 10:05:26;;;;;;;5.85;3.53;;;26.80;97.60;;;;;;4991379;28;20102;-49
2023/09/07 10:07:52;;;;;;;5.35;3.47;;;26.90;96.70;;;;;;4983029;28;20031;-56
2023/09/07 10:10:19;;;;;;;4.97;3.50;;;26.70;97.00;;;;;;4977391;28;20403;-53
2023/09/07 10:12:53;;;;;;;7.90;3.53;;;26.60;97.50;;;;;;4974848;28;20081;-55
2023/09/07 10:15:23;;;;;;;6.27;4.07;;;26.50;97.50;;;;;;4976035;28;20435;-55
2023/09/07 10:17:50;;;;;;;4.28;3.38;;;26.40;97.50;;;;;;4976187;28;20402;-52
2023/09/07 10:20:17;;;;;;;5.95;3.33;;;26.40;97.60;;;;;;4976228;28;20385;-56
2023/09/07 10:22:43;;;;;;;8.05;6.93;;;26.40;97.30;;;;;;4976057;28;20031;-55
2023/09/07 10:25:22;;;;;;;5.43;3.97;;;26.40;97.80;;;;;;4975740;28;20102;-52
2023/09/07 10:27:49;;;;;;;3.60;3.30;;;26.40;97.50;;;;;;4976180;28;20351;-52
2023/09/07 10:30:19;;;;;;;9.90;3.67;;;26.30;97.80;;;;;;4979377;28;20486;-49
2023/09/07 10:32:45;;;;;;;4.60;3.40;;;26.20;97.40;;;;;;4995450;28;20026;-53
2023/09/07 10:35:15;;;;;;;9.40;3.78;;;26.10;97.30;;;;;;4993412;28;20026;-55
2023/09/07 10:37:42;;;;;;;4.82;3.25;;;26.20;97.50;;;;;;4995122;28;20030;-57
2023/09/07 10:40:11;;;;;;;4.70;3.47;;;26.40;97.90;;;;;;4994825;28;20022;-51
2023/09/07 10:42:37;;;;;;;6.60;3.30;;;26.40;97.10;;;;;;4995234;28;20034;-52
2023/09/07 10:45:12;;;;;;;4.70;3.78;;;26.60;97.50;;;;;;4994956;28;20102;-54
2023/09/07 10:47:45;;;;;;;;;;;26.60;97.00;;;;;;4994177;28;20030;-54
2023/09/07 10:50:12;;;;;;;11.00;3.75;;;26.60;97.00;;;;;;4995263;28;20398;-54
2023/09/07 10:52:39;;;;;;;3.85;3.45;;;26.50;97.20;;;;;;4994990;28;20031;-56
2023/09/07 10:55:06;;;;;;;5.63;3.78;;;26.50;97.00;;;;;;4994726;28;20031;-55
2023/09/07 10:57:31;;;;;;;3.67;3.33;;;26.40;97.00;;;;;;4994883;28;20022;-52
2023/09/07 10:59:57;;;;;;;6.57;3.42;;;26.40;96.90;;;;;;4993773;28;20049;-55
2023/09/07 11:02:22;;;;;;;3.83;3.17;;;26.30;96.90;;;;;;4994886;28;20042;-56
2023/09/07 11:04:48;;;;;;;6.45;3.63;;;26.30;97.00;;;;;;4994405;28;20038;-51
2023/09/07 11:07:13;;;;;;;5.28;3.63;;;26.20;96.60;;;;;;4994758;28;20490;-51
2023/09/07 11:09:43;;;;;;;4.82;3.28;;;26.30;97.10;;;;;;4994819;28;20073;-52
2023/09/07 11:12:11;;;;;;;8.38;3.20;;;26.30;96.60;;;;;;4993310;28;20053;-56
2023/09/07 11:14:39;;;;;;;3.72;3.30;;;26.20;96.80;;;;;;4994376;28;20018;-55
2023/09/07 11:17:04;;;;;;;5.05;3.55;;;26.30;96.90;;;;;;4994580;28;20031;-51
2023/09/07 11:19:34;;;;;;;3.92;3.63;;;26.30;96.80;;;;;;4994481;28;20026;-49
2023/09/07 11:21:59;;;;;;;3.22;3.03;;;26.40;97.10;;;;;;4992777;28;20038;-55
2023/09/07 11:24:25;;;;;;;7.57;3.80;;;26.30;97.10;;;;;;4993753;28;20370;-54
2023/09/07 11:26:51;;;;;;;3.85;3.45;;;26.30;97.30;;;;;;4994269;28;20026;-56
2023/09/07 11:29:18;;;;;;;4.75;3.40;;;26.40;97.00;;;;;;4994363;28;20026;-51
2023/09/07 11:31:45;;;;;;;4.22;3.78;;;26.40;97.20;;;;;;4994250;28;20430;-52
2023/09/07 11:34:12;;;;;;;6.80;4.28;;;26.40;97.10;;;;;;4993851;28;20072;-55
2023/09/07 11:36:38;;;;;;;4.70;3.78;;;26.40;97.40;;;;;;4994118;28;20029;-54
2023/09/07 11:39:12;;;;;;;6.40;3.20;;;26.40;97.20;;;;;;4994137;28;20023;-52
2023/09/07 11:41:46;;;;;;;4.78;3.13;;;26.50;97.00;;;;;;4994322;28;20068;-52
2023/09/07 11:44:12;;;;;;;5.47;3.63;;;26.50;96.80;;;;;;4993874;28;20026;-55
2023/09/07 11:46:38;;;;;;;5.13;3.53;;;26.60;96.40;;;;;;4993646;28;20031;-54
2023/09/07 11:49:04;;;;;;;5.05;3.67;;;26.50;96.70;;;;;;4994068;28;20038;-52
2023/09/07 11:51:30;;;;;;;5.68;3.13;;;26.50;96.90;;;;;;4992739;28;20113;-54
2023/09/07 11:53:56;;;;;;;6.18;3.88;;;26.60;96.70;;;;;;4993584;28;20138;-54
2023/09/07 11:56:21;;;;;;;4.10;3.72;;;26.60;96.50;;;;;;4994082;28;20023;-49
2023/09/07 11:58:47;;;;;;;15.30;2.83;;;26.60;96.60;;;;;;4994245;28;20019;-54
2023/09/07 12:01:16;;;;;;;6.05;3.35;;;26.60;96.60;;;;;;4994004;28;20035;-53
2023/09/07 12:03:42;;;;;;;4.25;3.20;;;26.50;96.60;;;;;;4993566;28;20025;-51
2023/09/07 12:06:08;;;;;;;3.22;2.92;;;26.50;96.40;;;;;;4992543;28;20027;-51
2023/09/07 12:08:33;;;;;;;6.32;3.03;;;26.60;97.00;;;;;;4993604;28;20037;-55
2023/09/07 12:10:59;;;;;;;5.63;3.35;;;26.70;97.20;;;;;;4993778;28;20556;-55
2023/09/07 12:13:26;;;;;;;5.78;3.05;;;26.80;97.10;;;;;;4993139;28;20030;-52
2023/09/07 12:15:51;;;;;;;5.35;3.75;;;26.70;97.70;;;;;;4993564;28;20018;-53
2023/09/07 12:18:17;;;;;;;6.15;3.35;;;26.80;97.40;;;;;;4993396;28;20029;-54
2023/09/07 12:20:44;;;;;;;6.25;2.95;;;26.90;97.50;;;;;;4993453;28;20026;-50
2023/09/07 12:23:10;;;;;;;7.40;4.30;;;27.00;97.60;;;;;;4993715;28;20464;-51
2023/09/07 12:25:36;;;;;;;6.47;4.25;;;27.10;97.60;;;;;;4991892;28;20061;-52
2023/09/07 12:28:02;;;;;;;7.90;3.35;;;27.20;97.00;;;;;;4993318;28;20088;-58
2023/09/07 12:30:28;;;;;;;9.18;3.50;;;27.30;96.30;;;;;;4993337;28;20030;-54
2023/09/07 12:32:54;;;;;;;5.60;3.42;;;27.30;96.50;;;;;;4993624;28;20092;-53
2023/09/07 12:35:20;;;;;;;8.45;3.72;;;27.40;96.00;;;;;;4990726;28;20125;-49
2023/09/07 12:37:46;;;;;;;3.17;2.90;;;27.30;96.10;;;;;;4993042;28;20320;-52
2023/09/07 12:40:14;;;;;;;8.88;3.40;;;27.30;95.20;;;;;;4993126;28;20026;-54
2023/09/07 12:42:42;;;;;;;3.33;3.03;;;27.40;94.90;;;;;;4993313;28;20034;-54